Altamont, North Carolina
Current Conditions -  °F | °C
As of 5:15 PM on Thursday 18 Dec 2014 (Local Time) from KTNB Reporting Station
Overcast Overcast  
Wind Chill: 36°   Ceiling: 4100
Heat Index: 41°   Visibility: 10mi
Dew Point: 14°   Wind: 8mph
Humidity: 33%   Direction: 280°W
Pressure: 30.05"   Gusts: NA
Location:  36.0227°N, 81.9499°W
Report Text: KTNB 182215Z AUTO 28007KT 10SM BKN041 OVC047 05/M10 A3005 RMK AO2 T00501100
Loading
Personal Weather Stations






























Interactive Weather Map New forecast layout! Learn more

10-Day Weather Forecast

Advertisements
Track Severe Weather on mobile